createdAt,value
2019-05-26T00:01:23.205Z,13.20
2019-05-26T00:03:42.252Z,13.20
2019-05-26T00:06:02.317Z,13.20
2019-05-26T00:08:21.368Z,13.20
2019-05-26T00:10:41.486Z,13.10
2019-05-26T00:13:00.500Z,13.10
2019-05-26T00:15:19.517Z,13.20
2019-05-26T00:17:38.478Z,13.20
2019-05-26T00:19:58.097Z,13.20
2019-05-26T00:22:17.119Z,13.20
2019-05-26T00:24:36.184Z,13.20
2019-05-26T00:26:55.303Z,13.20
2019-05-26T00:29:14.295Z,13.20
2019-05-26T00:31:33.358Z,13.00
2019-05-26T00:33:52.358Z,12.80
2019-05-26T00:36:11.378Z,12.70
2019-05-26T00:38:30.379Z,12.70
2019-05-26T00:40:49.434Z,12.70
2019-05-26T00:43:08.439Z,12.80
2019-05-26T00:45:27.427Z,12.90
2019-05-26T00:47:46.416Z,13.10
2019-05-26T00:50:08.791Z,13.00
2019-05-26T00:52:27.773Z,12.80
2019-05-26T00:54:46.846Z,12.70
2019-05-26T00:57:05.933Z,12.50
2019-05-26T00:59:24.922Z,12.50
2019-05-26T01:01:43.888Z,12.40
2019-05-26T01:04:02.887Z,12.30
2019-05-26T01:06:21.982Z,12.30
2019-05-26T01:08:41.163Z,12.40
2019-05-26T01:11:01.432Z,12.60
2019-05-26T01:13:23.871Z,12.60
2019-05-26T01:15:44.609Z,12.60
2019-05-26T01:18:04.534Z,12.60
2019-05-26T01:20:23.720Z,12.60
2019-05-26T01:22:42.720Z,12.60
2019-05-26T01:25:07.358Z,12.50
2019-05-26T01:27:26.415Z,12.40
2019-05-26T01:29:45.373Z,12.50
2019-05-26T01:32:04.844Z,12.50
2019-05-26T01:34:23.973Z,12.60
2019-05-26T01:36:43.059Z,12.60
2019-05-26T01:39:02.230Z,12.50
2019-05-26T01:41:21.900Z,12.30
2019-05-26T01:43:40.874Z,12.30
2019-05-26T01:45:59.867Z,12.30
2019-05-26T01:48:18.798Z,12.30
2019-05-26T01:50:37.818Z,12.30
2019-05-26T01:52:58.042Z,12.20
2019-05-26T01:55:17.044Z,12.30
2019-05-26T01:57:36.058Z,12.10
2019-05-26T01:59:55.929Z,12.20
2019-05-26T02:02:14.868Z,12.10
2019-05-26T02:04:33.823Z,12.10
2019-05-26T02:06:52.759Z,12.10
2019-05-26T02:09:11.865Z,12.10
2019-05-26T02:11:30.902Z,12.00
2019-05-26T02:13:49.934Z,12.00
2019-05-26T02:16:09.024Z,11.90
2019-05-26T02:18:32.621Z,12.00
2019-05-26T02:20:51.618Z,12.00
2019-05-26T02:23:12.664Z,12.00
2019-05-26T02:25:31.367Z,11.90
2019-05-26T02:27:50.486Z,11.80
2019-05-26T02:30:09.903Z,11.90
2019-05-26T02:32:28.886Z,11.90
2019-05-26T02:34:47.919Z,11.90
2019-05-26T02:37:06.939Z,11.80
2019-05-26T02:39:26.016Z,11.70
2019-05-26T02:41:47.997Z,11.60
2019-05-26T02:44:07.075Z,11.70
2019-05-26T02:46:25.988Z,11.70
2019-05-26T02:48:44.958Z,11.70
2019-05-26T02:51:04.066Z,11.70
2019-05-26T02:53:24.693Z,11.70
2019-05-26T02:55:43.979Z,11.70
2019-05-26T02:58:03.054Z,11.70
2019-05-26T03:00:32.921Z,11.70
2019-05-26T03:02:52.089Z,11.60
2019-05-26T03:05:17.144Z,11.40
2019-05-26T03:07:37.696Z,11.20
2019-05-26T03:09:57.555Z,11.40
2019-05-26T03:12:16.924Z,11.40
2019-05-26T03:14:36.793Z,11.40
2019-05-26T03:17:00.104Z,11.30
2019-05-26T03:19:19.122Z,11.40
2019-05-26T03:21:40.408Z,11.40
2019-05-26T03:24:00.937Z,11.50
2019-05-26T03:26:19.997Z,11.60
2019-05-26T03:28:41.842Z,11.60
2019-05-26T03:31:01.975Z,11.60
2019-05-26T03:33:24.097Z,11.70
2019-05-26T03:35:43.334Z,11.60
2019-05-26T03:38:02.486Z,11.70
2019-05-26T03:40:21.519Z,11.70
2019-05-26T03:42:40.673Z,11.60
2019-05-26T03:44:59.795Z,11.50
2019-05-26T03:47:20.328Z,11.50
2019-05-26T03:49:39.339Z,11.40
2019-05-26T03:51:58.363Z,11.40
2019-05-26T03:54:17.391Z,11.40
2019-05-26T03:56:36.385Z,11.60
2019-05-26T03:58:57.469Z,11.70
2019-05-26T04:01:16.182Z,11.80
2019-05-26T04:03:35.167Z,11.80
2019-05-26T04:05:54.181Z,11.70
2019-05-26T04:08:13.156Z,11.80
2019-05-26T04:10:32.111Z,11.80
2019-05-26T04:12:51.105Z,11.80
2019-05-26T04:15:10.134Z,11.70
2019-05-26T04:17:29.155Z,11.80
2019-05-26T04:19:48.073Z,11.80
2019-05-26T04:22:07.255Z,11.90
2019-05-26T04:24:27.890Z,11.90
2019-05-26T04:26:46.903Z,11.90
2019-05-26T04:29:06.016Z,11.90
2019-05-26T04:31:25.105Z,11.90
2019-05-26T04:33:44.203Z,12.00
2019-05-26T04:36:03.248Z,12.00
2019-05-26T04:38:22.307Z,12.00
2019-05-26T04:40:41.322Z,12.20
2019-05-26T04:43:00.266Z,12.30
2019-05-26T04:45:19.396Z,12.50
2019-05-26T04:47:39.931Z,12.60
2019-05-26T04:50:02.094Z,12.70
2019-05-26T04:52:22.230Z,12.80
2019-05-26T04:54:41.178Z,12.70
2019-05-26T04:57:02.295Z,12.50
2019-05-26T04:59:21.270Z,12.60
2019-05-26T05:01:42.649Z,12.70
2019-05-26T05:04:01.575Z,12.80
2019-05-26T05:06:20.513Z,12.90
2019-05-26T05:08:39.540Z,12.90
2019-05-26T05:10:58.656Z,12.80
2019-05-26T05:13:17.721Z,12.90
2019-05-26T05:15:38.376Z,13.00
2019-05-26T05:17:57.413Z,13.10
2019-05-26T05:20:16.452Z,13.10
2019-05-26T05:22:35.438Z,13.20
2019-05-26T05:24:54.447Z,13.30
2019-05-26T05:27:13.490Z,13.30
2019-05-26T05:29:32.505Z,13.40
2019-05-26T05:31:51.517Z,13.40
2019-05-26T05:34:10.545Z,13.40
2019-05-26T05:36:29.643Z,13.50
2019-05-26T05:38:48.589Z,13.50
2019-05-26T05:41:07.520Z,13.60
2019-05-26T05:43:26.727Z,13.70
2019-05-26T05:45:45.800Z,14.00
2019-05-26T05:48:04.821Z,14.20
2019-05-26T05:50:23.808Z,14.40
2019-05-26T05:52:42.926Z,14.60
2019-05-26T05:55:01.932Z,14.80
2019-05-26T05:57:20.925Z,15.00
2019-05-26T05:59:39.964Z,15.10
2019-05-26T06:01:58.914Z,15.40
2019-05-26T06:04:17.951Z,15.60
2019-05-26T06:06:36.939Z,15.70
2019-05-26T06:08:55.967Z,15.90
2019-05-26T06:11:16.976Z,16.00
2019-05-26T06:13:35.883Z,16.10
2019-05-26T06:15:54.915Z,16.20
2019-05-26T06:18:13.917Z,16.30
2019-05-26T06:20:33.031Z,16.40
2019-05-26T06:22:52.294Z,16.50
2019-05-26T06:25:11.373Z,16.50
2019-05-26T06:27:34.039Z,16.60
2019-05-26T06:29:58.876Z,16.70
2019-05-26T06:32:13.852Z,16.80
2019-05-26T06:34:33.004Z,16.90
2019-05-26T06:36:54.345Z,17.10
2019-05-26T06:39:13.612Z,17.20
2019-05-26T06:41:34.049Z,17.40
2019-05-26T06:43:53.598Z,17.60
2019-05-26T06:46:14.197Z,17.80
2019-05-26T06:48:33.202Z,17.90
2019-05-26T06:50:52.199Z,17.90
2019-05-26T06:53:11.266Z,18.30
2019-05-26T06:55:30.294Z,18.50
2019-05-26T06:57:49.381Z,18.80
2019-05-26T07:00:08.683Z,19.00
2019-05-26T07:02:27.750Z,19.30
2019-05-26T07:04:46.803Z,19.70
2019-05-26T07:07:07.549Z,19.70
2019-05-26T07:09:28.316Z,19.80
2019-05-26T07:11:55.912Z,20.00
2019-05-26T07:14:10.842Z,20.20
2019-05-26T07:16:38.057Z,20.60
2019-05-26T07:18:51.076Z,20.90
2019-05-26T07:21:10.130Z,21.00
2019-05-26T07:23:29.113Z,21.20
2019-05-26T07:25:48.113Z,21.30
2019-05-26T07:28:07.114Z,21.60
2019-05-26T07:30:26.193Z,21.80
2019-05-26T07:32:45.228Z,21.70
2019-05-26T07:35:05.832Z,21.30
2019-05-26T07:37:24.842Z,21.50
2019-05-26T07:39:43.847Z,22.00
2019-05-26T07:42:10.127Z,21.80
2019-05-26T07:44:23.666Z,22.00
2019-05-26T07:46:42.692Z,21.90
2019-05-26T07:49:03.402Z,22.20
2019-05-26T07:51:22.460Z,22.60
2019-05-26T07:53:41.514Z,22.50
2019-05-26T07:56:00.538Z,22.10
2019-05-26T07:58:19.579Z,22.20
2019-05-26T08:00:38.673Z,22.60
2019-05-26T08:02:57.703Z,22.80
2019-05-26T08:05:16.942Z,23.00
2019-05-26T08:07:35.958Z,23.20
2019-05-26T08:09:54.992Z,23.50
2019-05-26T08:12:25.979Z,23.50
2019-05-26T08:14:37.816Z,23.20
2019-05-26T08:16:56.851Z,23.80
2019-05-26T08:19:18.499Z,23.90
2019-05-26T08:21:37.417Z,23.80
2019-05-26T08:23:56.948Z,23.80
2019-05-26T08:26:16.817Z,24.00
2019-05-26T08:28:37.589Z,24.20
2019-05-26T08:30:56.762Z,23.70
2019-05-26T08:33:15.835Z,23.90
2019-05-26T08:35:37.750Z,24.20
2019-05-26T08:37:56.751Z,24.10
2019-05-26T08:40:20.275Z,24.20
2019-05-26T08:42:44.507Z,24.50
2019-05-26T08:45:00.984Z,24.20
2019-05-26T08:47:20.051Z,24.70
2019-05-26T08:49:39.083Z,24.30
2019-05-26T08:51:58.012Z,24.50
2019-05-26T08:54:17.044Z,25.00
2019-05-26T08:56:35.992Z,25.40
2019-05-26T08:58:55.026Z,25.40
2019-05-26T09:01:14.036Z,25.60
2019-05-26T09:03:33.070Z,24.70
2019-05-26T09:05:53.630Z,25.00
2019-05-26T09:08:12.592Z,25.70
2019-05-26T09:10:33.234Z,25.50
2019-05-26T09:13:01.282Z,25.50
2019-05-26T09:15:15.762Z,26.00
2019-05-26T09:17:34.801Z,25.60
2019-05-26T09:19:54.850Z,24.90
2019-05-26T09:22:13.776Z,25.40
2019-05-26T09:24:32.753Z,25.50
2019-05-26T09:26:51.697Z,26.10
2019-05-26T09:29:10.657Z,26.60
2019-05-26T09:31:29.593Z,25.30
2019-05-26T09:33:48.645Z,25.50
2019-05-26T09:36:07.668Z,25.80
2019-05-26T09:38:26.763Z,25.70
2019-05-26T09:40:45.843Z,25.90
2019-05-26T09:43:15.650Z,25.50
2019-05-26T09:45:45.394Z,25.70
2019-05-26T09:48:01.760Z,26.40
2019-05-26T09:50:23.644Z,26.50
2019-05-26T09:52:52.256Z,26.40
2019-05-26T09:55:17.356Z,26.60
2019-05-26T09:57:38.539Z,26.70
2019-05-26T09:59:57.755Z,26.30
2019-05-26T10:02:20.577Z,26.10
2019-05-26T10:04:56.267Z,25.80
2019-05-26T10:18:54.829Z,24.70
2019-05-26T10:24:09.004Z,24.60
2019-05-26T10:26:28.137Z,24.90
2019-05-26T10:28:47.214Z,25.80
2019-05-26T10:31:06.352Z,25.70
2019-05-26T10:33:25.317Z,25.80
2019-05-26T10:35:44.361Z,25.80
2019-05-26T10:38:03.486Z,25.90
2019-05-26T10:40:22.580Z,25.90
2019-05-26T10:42:41.625Z,25.80
2019-05-26T10:45:06.916Z,25.30
2019-05-26T10:47:25.903Z,25.40
2019-05-26T10:49:45.647Z,25.40
2019-05-26T10:52:04.921Z,25.40
2019-05-26T10:54:24.118Z,25.30
2019-05-26T10:56:43.220Z,24.60
2019-05-26T10:59:02.286Z,25.10
2019-05-26T11:01:22.464Z,25.60
2019-05-26T11:03:41.436Z,25.40
2019-05-26T11:06:00.385Z,25.70
2019-05-26T11:08:19.444Z,25.60
2019-05-26T11:10:38.482Z,25.30
2019-05-26T11:12:58.313Z,26.20
2019-05-26T11:15:20.066Z,26.20
2019-05-26T11:17:39.118Z,26.60
2019-05-26T11:19:58.040Z,27.20
2019-05-26T11:22:19.135Z,26.30
2019-05-26T11:24:38.515Z,27.10
2019-05-26T11:27:08.169Z,27.00
2019-05-26T11:29:19.184Z,27.20
2019-05-26T11:31:39.901Z,27.10
2019-05-26T11:33:58.965Z,27.30
2019-05-26T11:36:18.038Z,27.50
2019-05-26T11:38:37.079Z,27.70
2019-05-26T11:40:56.551Z,28.10
2019-05-26T11:43:17.394Z,28.20
2019-05-26T11:45:36.625Z,28.00
2019-05-26T11:47:55.719Z,27.20
2019-05-26T11:50:15.072Z,26.20
2019-05-26T11:52:34.051Z,26.20
2019-05-26T11:54:52.977Z,26.60
2019-05-26T11:57:12.102Z,26.80
2019-05-26T11:59:31.103Z,26.60
2019-05-26T12:01:50.169Z,26.60
2019-05-26T12:04:09.171Z,27.40
2019-05-26T12:06:28.186Z,27.80
2019-05-26T12:08:47.227Z,28.00
2019-05-26T12:11:06.162Z,27.30
2019-05-26T12:13:25.238Z,27.00
2019-05-26T12:15:44.232Z,26.40
2019-05-26T12:18:03.265Z,26.80
2019-05-26T12:20:23.895Z,26.50
2019-05-26T12:22:48.030Z,26.50
2019-05-26T12:25:07.633Z,26.40
2019-05-26T12:27:28.205Z,26.30
2019-05-26T12:29:48.832Z,26.70
2019-05-26T12:32:07.747Z,27.20
2019-05-26T12:34:26.777Z,27.00
2019-05-26T12:36:45.797Z,27.50
2019-05-26T12:39:07.493Z,28.00
2019-05-26T12:41:26.497Z,27.50
2019-05-26T12:43:45.522Z,27.60
2019-05-26T12:46:04.649Z,27.70
2019-05-26T12:48:23.570Z,27.60
2019-05-26T12:50:42.704Z,28.00
2019-05-26T12:53:06.027Z,27.60
2019-05-26T12:55:24.528Z,27.50
2019-05-26T12:57:43.470Z,27.40
2019-05-26T13:00:07.753Z,28.10
2019-05-26T13:02:27.026Z,28.00
2019-05-26T13:04:47.669Z,27.90
2019-05-26T13:07:09.710Z,28.20
2019-05-26T13:09:28.867Z,28.50
2019-05-26T13:12:12.915Z,28.50
2019-05-26T13:14:32.010Z,29.10
2019-05-26T13:16:51.072Z,28.10
2019-05-26T13:19:09.984Z,28.70
2019-05-26T13:21:28.916Z,29.20
2019-05-26T13:23:47.882Z,28.20
2019-05-26T13:26:06.946Z,28.40
2019-05-26T13:28:25.956Z,28.00
2019-05-26T13:30:45.101Z,27.10
2019-05-26T13:33:04.351Z,26.80
2019-05-26T13:35:23.409Z,27.00
2019-05-26T13:37:42.497Z,27.70
2019-05-26T13:40:01.659Z,28.50
2019-05-26T13:42:22.209Z,28.80
2019-05-26T13:44:41.326Z,29.20
2019-05-26T13:47:03.591Z,28.30
2019-05-26T13:49:22.604Z,28.10
2019-05-26T13:51:41.767Z,27.80
2019-05-26T13:54:00.808Z,28.30
2019-05-26T13:56:19.844Z,28.70
2019-05-26T13:58:41.792Z,28.10
2019-05-26T14:01:02.617Z,27.20
2019-05-26T14:03:24.411Z,26.90
2019-05-26T14:05:43.870Z,26.70
2019-05-26T14:08:04.608Z,26.30
2019-05-26T14:10:28.568Z,26.20
2019-05-26T14:12:47.804Z,25.80
2019-05-26T14:15:10.207Z,25.80
2019-05-26T14:17:30.250Z,26.30
2019-05-26T14:19:50.885Z,27.30
2019-05-26T14:22:10.217Z,27.50
2019-05-26T14:24:31.181Z,26.80
2019-05-26T14:26:52.356Z,26.60
2019-05-26T14:29:13.153Z,26.00
2019-05-26T14:31:32.242Z,25.30
2019-05-26T14:33:55.731Z,25.10
2019-05-26T14:36:14.822Z,25.00
2019-05-26T14:38:43.197Z,25.20
2019-05-26T14:40:55.460Z,25.90
2019-05-26T14:43:14.706Z,27.40
2019-05-26T14:45:33.822Z,28.00
2019-05-26T14:47:53.116Z,28.80
2019-05-26T14:50:13.275Z,29.60
2019-05-26T14:52:32.618Z,29.70
2019-05-26T14:54:51.827Z,29.90
2019-05-26T14:57:10.858Z,29.70
2019-05-26T14:59:29.891Z,29.60
2019-05-26T15:01:48.889Z,29.30
2019-05-26T15:04:07.995Z,27.90
2019-05-26T15:06:27.040Z,26.90
2019-05-26T15:08:46.011Z,26.40
2019-05-26T15:11:05.051Z,26.00
2019-05-26T15:13:24.025Z,26.50
2019-05-26T15:15:44.325Z,27.40
2019-05-26T15:18:03.809Z,28.10
2019-05-26T15:20:22.942Z,26.50
2019-05-26T15:22:41.939Z,26.20
2019-05-26T15:25:01.119Z,25.80
2019-05-26T15:27:21.199Z,25.70
2019-05-26T15:29:40.227Z,25.60
2019-05-26T15:31:59.445Z,25.90
2019-05-26T15:34:18.448Z,26.40
2019-05-26T15:36:37.499Z,26.20
2019-05-26T15:38:56.446Z,26.10
2019-05-26T15:41:15.491Z,26.70
2019-05-26T15:43:34.542Z,26.90
2019-05-26T15:45:54.485Z,26.50
2019-05-26T15:48:13.516Z,26.60
2019-05-26T15:50:32.461Z,26.50
2019-05-26T15:52:51.660Z,26.40
2019-05-26T15:55:10.935Z,26.20
2019-05-26T15:57:29.973Z,25.80
2019-05-26T15:59:49.988Z,25.80
2019-05-26T16:02:10.702Z,26.10
2019-05-26T16:04:29.708Z,26.00
2019-05-26T16:06:51.531Z,26.20
2019-05-26T16:09:10.531Z,25.80
2019-05-26T16:11:29.603Z,26.10
2019-05-26T16:13:48.712Z,26.40
2019-05-26T16:16:07.861Z,26.20
2019-05-26T16:18:26.930Z,26.40
2019-05-26T16:20:46.167Z,26.30
2019-05-26T16:23:08.568Z,26.20
2019-05-26T16:25:25.959Z,26.00
2019-05-26T16:27:44.954Z,25.60
2019-05-26T16:30:08.103Z,25.90
2019-05-26T16:32:27.105Z,25.80
2019-05-26T16:34:46.878Z,25.60
2019-05-26T16:37:05.992Z,25.30
2019-05-26T16:39:36.648Z,25.10
2019-05-26T16:41:47.982Z,25.20
2019-05-26T16:44:07.087Z,25.00
2019-05-26T16:46:26.117Z,25.00
2019-05-26T16:48:45.151Z,25.10
2019-05-26T16:51:04.140Z,24.90
2019-05-26T16:53:24.348Z,25.00
2019-05-26T16:55:43.832Z,24.80
2019-05-26T16:58:06.403Z,24.80
2019-05-26T17:00:23.592Z,24.80
2019-05-26T17:02:45.525Z,24.80
2019-05-26T17:05:06.324Z,24.80
2019-05-26T17:07:25.321Z,24.80
2019-05-26T17:09:44.326Z,24.70
2019-05-26T17:12:04.677Z,24.60
2019-05-26T17:14:23.724Z,24.40
2019-05-26T17:16:42.726Z,24.30
2019-05-26T17:19:01.829Z,24.30
2019-05-26T17:21:20.811Z,24.20
2019-05-26T17:23:39.926Z,24.10
2019-05-26T17:25:58.902Z,24.00
2019-05-26T17:28:19.908Z,24.00
2019-05-26T17:30:38.739Z,23.90
2019-05-26T17:32:57.797Z,23.90
2019-05-26T17:35:17.712Z,23.90
2019-05-26T17:37:36.930Z,23.80
2019-05-26T17:39:55.927Z,23.80
2019-05-26T17:42:14.981Z,23.70
2019-05-26T17:44:33.987Z,23.70
2019-05-26T17:46:55.513Z,23.60
2019-05-26T17:49:14.611Z,23.60
2019-05-26T17:51:33.796Z,23.60
2019-05-26T17:53:54.577Z,23.40
2019-05-26T17:56:13.522Z,23.40
2019-05-26T17:58:35.460Z,23.40
2019-05-26T18:00:54.525Z,23.30
2019-05-26T18:03:15.169Z,23.30
2019-05-26T18:05:34.274Z,23.20
2019-05-26T18:07:54.849Z,23.20
2019-05-26T18:10:14.289Z,23.00
2019-05-26T18:12:34.950Z,23.00
2019-05-26T18:14:54.059Z,22.90
2019-05-26T18:17:13.987Z,22.80
2019-05-26T18:19:33.062Z,22.70
2019-05-26T18:21:52.036Z,22.70
2019-05-26T18:24:12.108Z,22.60
2019-05-26T18:26:31.159Z,22.50
2019-05-26T18:28:50.193Z,22.40
2019-05-26T18:31:09.218Z,22.30
2019-05-26T18:33:28.293Z,22.10
2019-05-26T18:35:47.383Z,22.10
2019-05-26T18:38:06.544Z,22.10
2019-05-26T18:40:25.613Z,22.00
2019-05-26T18:42:44.666Z,22.00
2019-05-26T18:45:05.323Z,21.90
2019-05-26T18:47:24.253Z,21.80
2019-05-26T18:49:43.307Z,21.70
2019-05-26T18:52:03.493Z,21.70
2019-05-26T18:54:22.545Z,21.60
2019-05-26T18:56:41.667Z,21.50
2019-05-26T18:59:00.667Z,21.40
2019-05-26T19:01:19.597Z,21.20
2019-05-26T19:03:38.721Z,21.10
2019-05-26T19:05:57.715Z,21.00
2019-05-26T19:08:19.572Z,20.90
2019-05-26T19:10:38.671Z,20.90
2019-05-26T19:12:57.674Z,20.90
2019-05-26T19:15:16.837Z,20.90
2019-05-26T19:17:35.841Z,20.70
2019-05-26T19:19:54.787Z,20.60
2019-05-26T19:22:13.883Z,20.50
2019-05-26T19:24:32.953Z,20.40
2019-05-26T19:26:51.943Z,20.30
2019-05-26T19:29:10.981Z,20.10
2019-05-26T19:31:29.946Z,19.90
2019-05-26T19:33:52.005Z,19.80
2019-05-26T19:36:11.048Z,19.90
2019-05-26T19:38:30.164Z,20.00
2019-05-26T19:40:49.391Z,19.90
2019-05-26T19:43:08.456Z,19.90
2019-05-26T19:45:27.486Z,19.90
2019-05-26T19:47:46.579Z,19.80
2019-05-26T19:50:07.056Z,19.80
2019-05-26T19:52:27.348Z,19.80
2019-05-26T19:54:46.420Z,19.70
2019-05-26T19:57:05.467Z,19.60
2019-05-26T19:59:24.537Z,19.60
2019-05-26T20:01:44.526Z,19.50
2019-05-26T20:04:03.573Z,19.50
2019-05-26T20:06:22.705Z,19.40
2019-05-26T20:08:41.707Z,19.30
2019-05-26T20:11:00.735Z,19.30
2019-05-26T20:13:19.770Z,19.30
2019-05-26T20:15:38.855Z,19.30
2019-05-26T20:17:57.887Z,19.30
2019-05-26T20:20:18.426Z,19.30
2019-05-26T20:22:37.956Z,19.20
2019-05-26T20:24:59.542Z,19.20
2019-05-26T20:27:18.625Z,19.20
2019-05-26T20:29:37.890Z,19.20
2019-05-26T20:32:02.816Z,19.20
2019-05-26T20:34:25.827Z,19.20
2019-05-26T20:36:49.155Z,19.20
2019-05-26T20:39:09.369Z,19.20
2019-05-26T20:41:29.998Z,19.20
2019-05-26T20:43:49.082Z,19.20
2019-05-26T20:46:08.263Z,19.20
2019-05-26T20:48:27.583Z,19.20
2019-05-26T20:50:46.596Z,19.10
2019-05-26T20:53:05.604Z,19.10
2019-05-26T20:55:24.623Z,19.00
2019-05-26T20:57:43.649Z,19.00
2019-05-26T21:00:05.334Z,18.90
2019-05-26T21:02:25.869Z,18.90
2019-05-26T21:04:44.928Z,18.90
2019-05-26T21:07:03.997Z,18.80
2019-05-26T21:09:23.571Z,18.70
2019-05-26T21:11:42.593Z,18.70
2019-05-26T21:14:02.489Z,18.60
2019-05-26T21:16:22.824Z,18.60
2019-05-26T21:18:41.779Z,18.60
2019-05-26T21:21:03.629Z,18.60
2019-05-26T21:23:22.922Z,18.50
2019-05-26T21:25:41.939Z,18.50
2019-05-26T21:28:01.874Z,18.40
2019-05-26T21:30:20.944Z,18.50
2019-05-26T21:32:39.942Z,18.40
2019-05-26T21:34:59.049Z,18.40
2019-05-26T21:37:18.057Z,18.30
2019-05-26T21:39:37.078Z,18.20
2019-05-26T21:41:56.175Z,18.10
2019-05-26T21:44:15.111Z,18.10
2019-05-26T21:46:34.212Z,18.00
2019-05-26T21:48:53.241Z,18.00
2019-05-26T21:51:12.290Z,18.00
2019-05-26T21:53:31.375Z,18.00
2019-05-26T21:55:50.377Z,17.90
2019-05-26T21:58:12.411Z,17.90
2019-05-26T22:00:33.117Z,17.90
2019-05-26T22:02:52.187Z,17.90
2019-05-26T22:05:11.375Z,17.80
2019-05-26T22:07:31.868Z,17.80
2019-05-26T22:09:50.810Z,17.70
2019-05-26T22:12:11.402Z,17.70
2019-05-26T22:14:30.414Z,17.60
2019-05-26T22:16:53.501Z,17.50
2019-05-26T22:19:12.454Z,17.40
2019-05-26T22:21:31.477Z,17.20
2019-05-26T22:23:53.078Z,17.10
2019-05-26T22:26:12.088Z,17.10
2019-05-26T22:28:31.114Z,17.10
2019-05-26T22:30:50.129Z,17.10
2019-05-26T22:33:09.052Z,17.20
2019-05-26T22:35:28.112Z,17.10
2019-05-26T22:37:47.150Z,17.10
2019-05-26T22:40:06.624Z,17.00
2019-05-26T22:42:25.642Z,16.90
2019-05-26T22:44:44.850Z,16.80
2019-05-26T22:47:03.844Z,16.70
2019-05-26T22:49:26.182Z,16.70
2019-05-26T22:51:46.092Z,16.60
2019-05-26T22:54:06.111Z,16.60
2019-05-26T22:56:26.021Z,16.50
2019-05-26T22:58:46.100Z,16.40
2019-05-26T23:01:07.230Z,16.40
2019-05-26T23:03:28.806Z,16.30
2019-05-26T23:05:49.367Z,16.40
2019-05-26T23:08:09.393Z,16.30
2019-05-26T23:10:29.492Z,16.30
2019-05-26T23:12:49.783Z,16.30
2019-05-26T23:15:10.769Z,16.30
2019-05-26T23:17:31.303Z,16.40
2019-05-26T23:19:53.895Z,16.30
2019-05-26T23:22:14.328Z,16.30
2019-05-26T23:24:34.613Z,16.30
2019-05-26T23:26:57.804Z,16.20
2019-05-26T23:29:17.847Z,16.20
2019-05-26T23:31:48.310Z,16.30
2019-05-26T23:34:09.421Z,16.30
2019-05-26T23:36:32.283Z,16.30
2019-05-26T23:38:54.113Z,16.30
2019-05-26T23:41:15.270Z,16.40
2019-05-26T23:43:35.381Z,16.30
2019-05-26T23:45:55.850Z,16.20
2019-05-26T23:48:16.141Z,16.10
2019-05-26T23:50:36.193Z,16.10
2019-05-26T23:52:57.149Z,16.10
2019-05-26T23:55:17.376Z,16.10
2019-05-26T23:57:37.411Z,16.00
2019-05-26T23:59:58.597Z,16.10
